createdAt,value
2019-01-20T00:00:38.531Z,94.10
2019-01-20T00:02:40.266Z,93.60
2019-01-20T00:04:42.020Z,93.10
2019-01-20T00:06:43.727Z,94.40
2019-01-20T00:08:45.446Z,94.30
2019-01-20T00:10:47.174Z,94.10
2019-01-20T00:12:49.006Z,93.90
2019-01-20T00:14:50.776Z,93.00
2019-01-20T00:16:52.536Z,93.20
2019-01-20T00:18:54.263Z,93.70
2019-01-20T00:20:55.992Z,94.60
2019-01-20T00:22:57.807Z,93.40
2019-01-20T00:24:59.577Z,92.70
2019-01-20T00:27:01.384Z,92.40
2019-01-20T00:29:04.098Z,92.30
2019-01-20T00:31:05.843Z,92.70
2019-01-20T00:33:07.719Z,92.50
2019-01-20T00:35:09.618Z,92.50
2019-01-20T00:37:11.620Z,92.10
2019-01-20T00:39:13.315Z,93.30
2019-01-20T00:41:15.122Z,93.20
2019-01-20T00:43:16.870Z,93.70
2019-01-20T00:45:18.795Z,94.40
2019-01-20T00:47:20.511Z,93.60
2019-01-20T00:49:22.264Z,91.90
2019-01-20T00:51:23.982Z,91.40
2019-01-20T00:53:25.694Z,91.10
2019-01-20T00:55:27.694Z,92.00
2019-01-20T00:57:31.681Z,90.90
2019-01-20T00:59:33.402Z,91.00
2019-01-20T01:01:35.758Z,90.90
2019-01-20T01:03:37.902Z,91.90
2019-01-20T01:05:40.168Z,89.90
2019-01-20T01:07:42.099Z,89.50
2019-01-20T01:09:44.112Z,89.90
2019-01-20T01:11:46.684Z,90.50
2019-01-20T01:13:48.814Z,91.30
2019-01-20T01:15:50.887Z,92.20
2019-01-20T01:17:52.605Z,90.90
2019-01-20T01:19:55.411Z,90.70
2019-01-20T01:21:57.319Z,89.60
2019-01-20T01:23:59.026Z,88.00
2019-01-20T01:26:00.723Z,89.20
2019-01-20T01:28:03.030Z,88.20
2019-01-20T01:30:08.050Z,88.80
2019-01-20T01:32:09.958Z,89.70
2019-01-20T01:34:11.850Z,90.10
2019-01-20T01:36:13.559Z,89.20
2019-01-20T01:38:15.270Z,89.40
2019-01-20T01:40:17.874Z,90.20
2019-01-20T01:42:19.687Z,89.30
2019-01-20T01:44:21.435Z,90.10
2019-01-20T01:46:23.427Z,90.20
2019-01-20T01:48:25.138Z,91.60
2019-01-20T01:50:26.879Z,92.00
2019-01-20T01:52:28.587Z,91.80
2019-01-20T01:54:30.306Z,92.50
2019-01-20T01:56:32.040Z,93.60
2019-01-20T01:58:33.850Z,94.00
2019-01-20T02:00:35.666Z,93.00
2019-01-20T02:02:37.568Z,93.80
2019-01-20T02:04:39.274Z,94.70
2019-01-20T02:06:41.083Z,95.00
2019-01-20T02:08:43.447Z,95.40
2019-01-20T02:10:45.160Z,95.20
2019-01-20T02:12:48.194Z,95.30
2019-01-20T02:14:50.087Z,94.50
2019-01-20T02:16:52.035Z,94.30
2019-01-20T02:18:53.742Z,93.90
2019-01-20T02:20:55.487Z,93.20
2019-01-20T02:22:57.218Z,93.70
2019-01-20T02:24:59.244Z,93.80
2019-01-20T02:27:00.999Z,92.90
2019-01-20T02:29:03.722Z,93.80
2019-01-20T02:31:05.781Z,93.60
2019-01-20T02:33:07.607Z,93.10
2019-01-20T02:35:09.510Z,92.20
2019-01-20T02:37:11.328Z,92.90
2019-01-20T02:39:13.062Z,93.00
2019-01-20T02:41:14.781Z,92.50
2019-01-20T02:43:16.505Z,93.20
2019-01-20T02:45:18.322Z,92.40
2019-01-20T02:47:20.032Z,93.90
2019-01-20T02:49:21.870Z,93.00
2019-01-20T02:51:23.676Z,95.20
2019-01-20T02:53:25.387Z,95.20
2019-01-20T02:55:27.368Z,94.90
2019-01-20T02:57:29.199Z,94.50
2019-01-20T02:59:30.920Z,94.70
2019-01-20T03:01:32.624Z,94.00
2019-01-20T03:03:34.455Z,93.80
2019-01-20T03:05:36.620Z,93.10
2019-01-20T03:07:38.336Z,94.00
2019-01-20T03:09:40.154Z,93.10
2019-01-20T03:11:41.863Z,93.50
2019-01-20T03:13:43.577Z,94.10
2019-01-20T03:15:45.418Z,92.90
2019-01-20T03:17:47.224Z,95.00
2019-01-20T03:19:48.934Z,93.50
2019-01-20T03:21:50.826Z,93.40
2019-01-20T03:23:52.526Z,93.80
2019-01-20T03:25:54.264Z,93.30
2019-01-20T03:27:56.095Z,96.30
2019-01-20T03:29:57.811Z,94.70
2019-01-20T03:31:59.534Z,95.10
2019-01-20T03:34:01.761Z,94.80
2019-01-20T03:36:03.670Z,95.30
2019-01-20T03:38:05.473Z,95.40
2019-01-20T03:40:09.314Z,96.70
2019-01-20T03:42:12.106Z,95.80
2019-01-20T03:44:14.247Z,95.30
2019-01-20T03:46:16.114Z,95.10
2019-01-20T03:48:17.937Z,95.60
2019-01-20T03:50:19.762Z,95.70
2019-01-20T03:52:21.715Z,93.60
2019-01-20T03:54:23.521Z,93.20
2019-01-20T03:56:25.541Z,94.40
2019-01-20T03:58:27.363Z,92.70
2019-01-20T04:00:29.348Z,95.00
2019-01-20T04:02:31.433Z,94.50
2019-01-20T04:04:33.419Z,94.50
2019-01-20T04:06:35.142Z,94.00
2019-01-20T04:08:36.852Z,94.90
2019-01-20T04:10:38.704Z,94.60
2019-01-20T04:12:40.423Z,95.20
2019-01-20T04:14:42.230Z,95.50
2019-01-20T04:16:44.329Z,96.40
2019-01-20T04:18:46.042Z,95.90
2019-01-20T04:20:47.750Z,96.30
2019-01-20T04:22:49.609Z,98.30
2019-01-20T04:24:51.410Z,96.10
2019-01-20T04:26:53.386Z,96.00
2019-01-20T04:28:55.222Z,96.60
2019-01-20T04:30:57.043Z,96.70
2019-01-20T04:32:58.775Z,97.60
2019-01-20T04:35:00.626Z,97.20
2019-01-20T04:37:02.452Z,97.30
2019-01-20T04:39:05.935Z,97.60
2019-01-20T04:41:07.841Z,97.50
2019-01-20T04:43:09.811Z,97.60
2019-01-20T04:45:12.006Z,97.60
2019-01-20T04:47:14.207Z,98.30
2019-01-20T04:49:15.920Z,98.30
2019-01-20T04:51:17.622Z,98.30
2019-01-20T04:53:19.336Z,98.30
2019-01-20T04:55:21.135Z,98.30
2019-01-20T04:57:23.246Z,98.30
2019-01-20T04:59:25.131Z,98.30
2019-01-20T05:01:26.834Z,98.30
2019-01-20T05:03:28.562Z,98.30
2019-01-20T05:05:30.448Z,98.30
2019-01-20T05:07:32.250Z,98.10
2019-01-20T05:09:34.011Z,98.30
2019-01-20T05:11:35.813Z,98.30
2019-01-20T05:13:37.540Z,98.30
2019-01-20T05:15:39.250Z,98.30
2019-01-20T05:17:41.108Z,98.30
2019-01-20T05:19:42.802Z,98.30
2019-01-20T05:21:44.518Z,98.30
2019-01-20T05:23:46.357Z,98.30
2019-01-20T05:25:48.169Z,98.30
2019-01-20T05:27:49.900Z,98.30
2019-01-20T05:29:51.734Z,98.30
2019-01-20T05:31:53.451Z,98.30
2019-01-20T05:33:55.156Z,98.30
2019-01-20T05:35:56.908Z,98.30
2019-01-20T05:37:58.730Z,98.30
2019-01-20T05:40:00.450Z,98.30
2019-01-20T05:42:02.644Z,98.30
2019-01-20T05:44:04.361Z,98.30
2019-01-20T05:46:06.073Z,98.30
2019-01-20T05:48:07.905Z,98.30
2019-01-20T05:50:10.905Z,98.30
2019-01-20T05:52:12.682Z,98.30
2019-01-20T05:54:14.421Z,98.30
2019-01-20T05:56:16.241Z,98.30
2019-01-20T05:58:18.058Z,98.30
2019-01-20T06:00:21.990Z,98.30
2019-01-20T06:02:23.699Z,98.30
2019-01-20T06:04:25.550Z,98.30
2019-01-20T06:06:27.286Z,98.30
2019-01-20T06:08:28.986Z,98.30
2019-01-20T06:10:30.679Z,98.30
2019-01-20T06:12:32.510Z,98.00
2019-01-20T06:14:34.225Z,96.90
2019-01-20T06:16:36.025Z,98.30
2019-01-20T06:18:37.836Z,97.60
2019-01-20T06:20:39.956Z,98.30
2019-01-20T06:22:41.668Z,98.20
2019-01-20T06:24:43.386Z,97.30
2019-01-20T06:26:45.216Z,98.20
2019-01-20T06:28:46.974Z,98.30
2019-01-20T06:30:48.725Z,98.30
2019-01-20T06:32:50.606Z,98.30
2019-01-20T06:34:52.329Z,98.30
2019-01-20T06:36:54.030Z,98.30
2019-01-20T06:38:55.781Z,98.30
2019-01-20T06:40:57.510Z,98.30
2019-01-20T06:43:02.242Z,98.30
2019-01-20T06:45:04.472Z,98.30
2019-01-20T06:47:06.206Z,98.30
2019-01-20T06:49:07.919Z,98.30
2019-01-20T06:51:09.742Z,98.30
2019-01-20T06:53:11.739Z,98.30
2019-01-20T06:55:13.661Z,98.30
2019-01-20T06:57:15.610Z,98.30
2019-01-20T06:59:17.399Z,98.30
2019-01-20T07:01:19.107Z,98.30
2019-01-20T07:03:21.087Z,98.30
2019-01-20T07:05:23.180Z,98.30
2019-01-20T07:07:24.986Z,98.30
2019-01-20T07:09:26.699Z,98.30
2019-01-20T07:11:28.721Z,98.30
2019-01-20T07:13:30.433Z,98.30
2019-01-20T07:15:32.312Z,98.30
2019-01-20T07:17:34.055Z,98.30
2019-01-20T07:19:35.898Z,98.30
2019-01-20T07:21:37.627Z,98.30
2019-01-20T07:23:39.342Z,98.30
2019-01-20T07:25:41.087Z,98.30
2019-01-20T07:31:04.308Z,98.30
2019-01-20T07:33:06.620Z,98.30
2019-01-20T07:35:08.800Z,98.30
2019-01-20T07:37:10.673Z,98.30
2019-01-20T07:39:12.541Z,98.30
2019-01-20T07:41:14.567Z,98.30
2019-01-20T07:43:16.923Z,98.30
2019-01-20T07:46:17.218Z,98.30
2019-01-20T07:49:00.308Z,96.80
2019-01-20T07:51:03.199Z,98.30
2019-01-20T07:53:04.967Z,98.30
2019-01-20T07:55:07.718Z,98.30
2019-01-20T07:57:10.748Z,98.30
2019-01-20T07:59:13.067Z,98.30
2019-01-20T08:01:14.815Z,98.30
2019-01-20T08:03:40.810Z,98.30
2019-01-20T08:06:32.311Z,98.30
2019-01-20T08:09:02.445Z,98.30
2019-01-20T08:11:04.535Z,98.30
2019-01-20T08:13:06.547Z,98.30
2019-01-20T08:15:08.950Z,98.30
2019-01-20T08:17:11.370Z,98.30
2019-01-20T08:19:16.079Z,98.30
2019-01-20T08:21:17.911Z,98.30
2019-01-20T08:23:19.664Z,98.30
2019-01-20T08:25:21.663Z,98.30
2019-01-20T08:27:23.547Z,98.30
2019-01-20T08:29:31.276Z,98.30
2019-01-20T08:32:20.423Z,98.30
2019-01-20T08:34:22.598Z,98.30
2019-01-20T08:36:24.593Z,98.30
2019-01-20T08:38:26.374Z,98.30
2019-01-20T08:40:29.711Z,98.30
2019-01-20T08:42:31.558Z,98.30
2019-01-20T08:44:37.369Z,98.30
2019-01-20T08:47:16.606Z,98.30
2019-01-20T08:49:18.354Z,98.30
2019-01-20T08:51:20.286Z,98.30
2019-01-20T08:53:22.274Z,98.30
2019-01-20T08:55:24.104Z,98.30
2019-01-20T08:57:27.210Z,98.30
2019-01-20T08:59:28.975Z,98.30
2019-01-20T09:01:30.814Z,98.30
2019-01-20T09:03:33.539Z,98.30
2019-01-20T09:05:35.399Z,98.30
2019-01-20T09:07:38.440Z,98.30
2019-01-20T09:09:40.363Z,98.30
2019-01-20T09:11:42.639Z,98.30
2019-01-20T09:13:44.376Z,98.30
2019-01-20T09:15:46.362Z,98.30
2019-01-20T09:17:48.338Z,98.30
2019-01-20T09:19:50.090Z,98.30
2019-01-20T09:21:55.358Z,98.30
2019-01-20T09:23:57.190Z,98.30
2019-01-20T09:25:59.272Z,98.30
2019-01-20T09:28:01.304Z,98.30
2019-01-20T09:30:05.510Z,98.30
2019-01-20T09:32:07.354Z,98.30
2019-01-20T09:34:12.295Z,98.30
2019-01-20T09:36:15.192Z,98.30
2019-01-20T09:38:16.999Z,98.30
2019-01-20T09:40:20.907Z,98.30
2019-01-20T09:42:22.754Z,98.30
2019-01-20T09:44:24.464Z,98.30
2019-01-20T09:46:26.177Z,98.30
2019-01-20T09:48:28.153Z,98.30
2019-01-20T09:50:29.870Z,98.30
2019-01-20T09:52:31.686Z,98.30
2019-01-20T09:54:33.418Z,98.30
2019-01-20T09:56:35.230Z,98.30
2019-01-20T09:58:36.971Z,98.30
2019-01-20T10:00:38.807Z,98.30
2019-01-20T10:02:41.703Z,98.30
2019-01-20T10:04:43.887Z,98.30
2019-01-20T10:06:45.744Z,98.30
2019-01-20T10:08:47.626Z,98.30
2019-01-20T10:10:49.380Z,98.30
2019-01-20T10:12:51.267Z,98.30
2019-01-20T10:14:53.052Z,98.30
2019-01-20T10:16:54.856Z,98.30
2019-01-20T10:18:56.603Z,98.30
2019-01-20T10:20:58.415Z,98.30
2019-01-20T10:23:00.314Z,98.30
2019-01-20T10:25:02.642Z,98.30
2019-01-20T10:27:04.455Z,98.30
2019-01-20T10:29:06.285Z,98.30
2019-01-20T10:31:08.076Z,98.30
2019-01-20T10:33:09.852Z,98.30
2019-01-20T10:35:12.198Z,98.30
2019-01-20T10:37:14.053Z,98.30
2019-01-20T10:39:15.756Z,98.30
2019-01-20T10:41:17.562Z,98.30
2019-01-20T10:43:19.340Z,98.30
2019-01-20T10:45:21.059Z,98.30
2019-01-20T10:47:22.766Z,98.30
2019-01-20T10:49:24.619Z,98.30
2019-01-20T10:51:26.833Z,98.30
2019-01-20T10:53:28.712Z,98.30
2019-01-20T10:55:30.796Z,98.30
2019-01-20T10:57:32.603Z,98.30
2019-01-20T10:59:34.566Z,98.30
2019-01-20T11:01:36.405Z,98.30
2019-01-20T11:03:38.204Z,98.30
2019-01-20T11:05:40.070Z,98.30
2019-01-20T11:07:41.807Z,98.30
2019-01-20T11:09:44.290Z,98.30
2019-01-20T11:11:46.269Z,98.30
2019-01-20T11:13:48.259Z,97.10
2019-01-20T11:15:50.043Z,94.90
2019-01-20T11:17:52.889Z,93.80
2019-01-20T11:19:54.789Z,93.20
2019-01-20T11:21:56.682Z,93.90
2019-01-20T11:23:58.601Z,96.20
2019-01-20T11:26:00.527Z,93.80
2019-01-20T11:28:02.453Z,92.20
2019-01-20T11:30:05.836Z,92.90
2019-01-20T11:32:07.591Z,92.50
2019-01-20T11:34:09.467Z,93.30
2019-01-20T11:36:11.312Z,91.70
2019-01-20T11:38:13.074Z,91.00
2019-01-20T11:40:15.097Z,89.00
2019-01-20T11:42:17.986Z,88.10
2019-01-20T11:44:19.707Z,86.90
2019-01-20T11:46:21.432Z,87.20
2019-01-20T11:48:26.068Z,87.40
2019-01-20T11:50:27.880Z,88.40
2019-01-20T11:52:29.744Z,87.60
2019-01-20T11:54:31.471Z,86.40
2019-01-20T11:56:33.298Z,88.90
2019-01-20T11:58:35.084Z,89.30
2019-01-20T12:00:37.022Z,89.90
2019-01-20T12:02:38.767Z,86.90
2019-01-20T12:04:40.562Z,86.50
2019-01-20T12:06:49.289Z,85.40
2019-01-20T12:08:51.139Z,83.60
2019-01-20T12:10:52.938Z,82.10
2019-01-20T12:13:05.901Z,81.60
2019-01-20T12:15:09.446Z,81.60
2019-01-20T12:17:11.288Z,80.30
2019-01-20T12:19:13.336Z,80.70
2019-01-20T12:21:15.172Z,77.70
2019-01-20T12:23:17.212Z,75.20
2019-01-20T12:25:19.183Z,77.20
2019-01-20T12:27:20.923Z,75.60
2019-01-20T12:29:22.751Z,74.70
2019-01-20T12:31:24.500Z,73.00
2019-01-20T12:33:26.295Z,71.30
2019-01-20T12:35:28.243Z,70.10
2019-01-20T12:37:30.219Z,70.50
2019-01-20T12:39:32.079Z,70.40
2019-01-20T12:41:34.103Z,68.90
2019-01-20T12:43:35.831Z,68.00
2019-01-20T12:45:37.642Z,68.30
2019-01-20T12:47:39.402Z,66.10
2019-01-20T12:49:41.813Z,65.30
2019-01-20T12:51:43.537Z,66.60
2019-01-20T12:53:45.497Z,69.40
2019-01-20T12:55:47.234Z,67.20
2019-01-20T12:57:48.955Z,69.30
2019-01-20T12:59:50.680Z,67.20
2019-01-20T13:01:52.466Z,66.20
2019-01-20T13:03:54.253Z,67.40
2019-01-20T13:05:56.146Z,65.50
2019-01-20T13:07:57.871Z,63.10
2019-01-20T13:09:59.628Z,63.80
2019-01-20T13:12:01.580Z,63.40
2019-01-20T13:14:03.626Z,64.40
2019-01-20T13:16:08.407Z,62.30
2019-01-20T13:18:10.138Z,62.70
2019-01-20T13:20:14.758Z,61.40
2019-01-20T13:22:16.495Z,61.80
2019-01-20T13:24:18.457Z,61.80
2019-01-20T13:26:20.623Z,60.30
2019-01-20T13:28:22.510Z,58.70
2019-01-20T13:30:25.761Z,60.70
2019-01-20T13:32:27.612Z,59.80
2019-01-20T13:34:29.326Z,59.90
2019-01-20T13:36:31.148Z,61.90
2019-01-20T13:38:32.940Z,60.80
2019-01-20T13:40:46.670Z,62.30
2019-01-20T13:42:48.494Z,60.80
2019-01-20T13:44:50.382Z,60.40
2019-01-20T13:46:52.311Z,60.20
2019-01-20T13:48:54.152Z,59.50
2019-01-20T13:50:55.879Z,60.40
2019-01-20T13:52:57.587Z,59.40
2019-01-20T13:54:59.314Z,58.30
2019-01-20T13:57:01.315Z,58.50
2019-01-20T13:59:03.343Z,59.50
2019-01-20T14:01:05.262Z,60.50
2019-01-20T14:03:06.986Z,61.40
2019-01-20T14:05:08.867Z,62.00
2019-01-20T14:07:11.021Z,61.10
2019-01-20T14:09:12.971Z,62.00
2019-01-20T14:11:14.805Z,62.30
2019-01-20T14:13:16.688Z,63.20
2019-01-20T14:15:18.630Z,63.20
2019-01-20T14:17:21.465Z,64.00
2019-01-20T14:19:23.191Z,64.80
2019-01-20T14:21:25.179Z,65.40
2019-01-20T14:23:27.002Z,65.50
2019-01-20T14:25:28.826Z,64.80
2019-01-20T14:27:31.390Z,65.70
2019-01-20T14:29:33.224Z,67.10
2019-01-20T14:31:34.946Z,66.70
2019-01-20T14:33:36.842Z,67.30
2019-01-20T14:35:38.592Z,69.10
2019-01-20T14:37:40.690Z,70.80
2019-01-20T14:39:42.425Z,71.20
2019-01-20T14:41:44.147Z,71.60
2019-01-20T14:43:46.021Z,71.10
2019-01-20T14:45:47.998Z,70.50
2019-01-20T14:47:49.743Z,70.50
2019-01-20T14:49:51.539Z,72.10
2019-01-20T14:51:53.277Z,71.90
2019-01-20T14:53:55.354Z,75.50
2019-01-20T14:55:57.396Z,78.70
2019-01-20T14:57:59.322Z,77.50
2019-01-20T15:00:01.162Z,77.40
2019-01-20T15:02:09.451Z,78.70
2019-01-20T15:04:12.182Z,79.80
2019-01-20T15:06:14.290Z,81.80
2019-01-20T15:08:16.477Z,82.40
2019-01-20T15:10:18.427Z,83.00
2019-01-20T15:12:20.398Z,85.70
2019-01-20T15:14:22.313Z,85.20
2019-01-20T15:16:24.167Z,87.30
2019-01-20T15:18:25.935Z,88.30
2019-01-20T15:20:27.734Z,89.70
2019-01-20T15:22:29.634Z,90.50
2019-01-20T15:24:31.575Z,91.50
2019-01-20T15:26:33.297Z,92.80
2019-01-20T15:28:35.996Z,94.50
2019-01-20T15:30:37.920Z,96.50
2019-01-20T15:32:39.626Z,97.30
2019-01-20T15:34:41.634Z,98.30
2019-01-20T15:36:43.339Z,98.30
2019-01-20T15:38:45.047Z,98.30
2019-01-20T15:40:47.131Z,98.30
2019-01-20T15:42:49.083Z,98.30
2019-01-20T15:44:50.790Z,98.30
2019-01-20T15:46:52.762Z,98.30
2019-01-20T15:48:54.474Z,98.30
2019-01-20T15:50:56.191Z,98.30
2019-01-20T15:52:58.218Z,98.30
2019-01-20T15:54:59.926Z,98.30
2019-01-20T15:57:01.658Z,98.30
2019-01-20T15:59:03.518Z,98.30
2019-01-20T16:01:05.274Z,98.30
2019-01-20T16:03:07.484Z,98.30
2019-01-20T16:05:09.506Z,98.30
2019-01-20T16:07:11.236Z,98.30
2019-01-20T16:09:12.961Z,98.30
2019-01-20T16:11:14.832Z,98.30
2019-01-20T16:13:16.550Z,98.30
2019-01-20T16:15:29.929Z,98.30
2019-01-20T16:17:31.794Z,98.30
2019-01-20T16:19:33.528Z,98.30
2019-01-20T16:21:35.623Z,98.30
2019-01-20T16:23:37.791Z,98.30
2019-01-20T16:25:39.531Z,98.30
2019-01-20T16:27:41.533Z,98.30
2019-01-20T16:29:43.543Z,98.30
2019-01-20T16:31:45.484Z,98.30
2019-01-20T16:33:47.385Z,98.30
2019-01-20T16:35:49.251Z,98.30
2019-01-20T16:37:51.583Z,98.30
2019-01-20T16:39:53.834Z,98.30
2019-01-20T16:41:56.559Z,98.30
2019-01-20T16:43:58.735Z,98.30
2019-01-20T16:46:00.646Z,98.30
2019-01-20T16:48:03.374Z,98.30
2019-01-20T16:50:07.515Z,98.30
2019-01-20T16:52:10.763Z,98.30
2019-01-20T16:54:12.835Z,98.30
2019-01-20T16:59:38.283Z,98.30
2019-01-20T17:01:48.059Z,98.30
2019-01-20T17:03:48.080Z,98.30
2019-01-20T17:05:49.802Z,98.30
2019-01-20T17:07:51.878Z,98.30
2019-01-20T17:09:53.902Z,98.30
2019-01-20T17:11:55.990Z,98.30
2019-01-20T17:13:57.731Z,98.30
2019-01-20T17:15:59.474Z,98.30
2019-01-20T17:18:01.423Z,98.30
2019-01-20T17:20:04.879Z,98.30
2019-01-20T17:22:06.714Z,98.30
2019-01-20T17:24:08.452Z,98.30
2019-01-20T17:26:10.585Z,98.30
2019-01-20T17:28:12.582Z,98.30
2019-01-20T17:30:17.015Z,98.30
2019-01-20T17:32:43.935Z,98.30
2019-01-20T17:34:45.830Z,98.30
2019-01-20T17:36:47.809Z,98.30
2019-01-20T17:38:49.844Z,98.30
2019-01-20T17:40:51.651Z,98.30
2019-01-20T17:42:53.570Z,98.30
2019-01-20T17:48:04.206Z,98.30
2019-01-20T17:50:28.394Z,98.30
2019-01-20T17:52:30.587Z,98.30
2019-01-20T17:54:32.496Z,97.70
2019-01-20T17:56:34.455Z,98.30
2019-01-20T17:58:36.475Z,97.20
2019-01-20T18:00:41.250Z,98.30
2019-01-20T18:02:43.126Z,98.30
2019-01-20T18:04:45.148Z,97.30
2019-01-20T18:06:47.124Z,97.10
2019-01-20T18:08:49.075Z,95.90
2019-01-20T18:10:51.054Z,95.00
2019-01-20T18:12:53.450Z,94.50
2019-01-20T18:14:55.275Z,97.50
2019-01-20T18:16:57.110Z,98.30
2019-01-20T18:18:58.814Z,98.30
2019-01-20T18:21:00.555Z,97.20
2019-01-20T18:23:02.679Z,96.60
2019-01-20T18:25:06.766Z,96.60
2019-01-20T18:27:08.654Z,96.60
2019-01-20T18:29:10.766Z,97.20
2019-01-20T18:31:12.490Z,95.80
2019-01-20T18:33:14.306Z,97.70
2019-01-20T18:35:17.039Z,98.30
2019-01-20T18:37:19.067Z,98.30
2019-01-20T18:39:20.873Z,98.30
2019-01-20T18:41:22.771Z,98.00
2019-01-20T18:43:24.863Z,96.70
2019-01-20T18:45:28.773Z,96.60
2019-01-20T18:47:30.715Z,97.10
2019-01-20T18:49:32.564Z,95.60
2019-01-20T18:51:34.417Z,98.30
2019-01-20T18:53:36.254Z,96.50
2019-01-20T18:55:38.511Z,96.80
2019-01-20T18:57:40.630Z,95.90
2019-01-20T18:59:42.363Z,96.20
2019-01-20T19:01:44.292Z,94.50
2019-01-20T19:03:46.035Z,95.10
2019-01-20T19:05:49.128Z,95.30
2019-01-20T19:07:55.339Z,94.60
2019-01-20T19:10:14.527Z,95.90
2019-01-20T19:12:16.353Z,96.30
2019-01-20T19:14:18.922Z,97.30
2019-01-20T19:16:20.691Z,96.30
2019-01-20T19:18:22.628Z,96.70
2019-01-20T19:20:24.612Z,96.80
2019-01-20T19:22:26.532Z,98.30
2019-01-20T19:24:28.287Z,98.30
2019-01-20T19:26:30.135Z,98.30
2019-01-20T19:28:32.135Z,96.80
2019-01-20T19:30:34.167Z,97.70
2019-01-20T19:32:35.950Z,98.30
2019-01-20T19:34:37.776Z,98.30
2019-01-20T19:36:39.531Z,98.30
2019-01-20T19:38:41.344Z,98.30
2019-01-20T19:40:43.254Z,97.90
2019-01-20T19:42:45.094Z,96.50
2019-01-20T19:44:46.818Z,97.00
2019-01-20T19:46:48.566Z,95.70
2019-01-20T19:48:51.147Z,95.60
2019-01-20T19:50:53.172Z,95.30
2019-01-20T19:52:55.044Z,96.20
2019-01-20T19:54:56.815Z,95.90
2019-01-20T19:56:58.571Z,97.40
2019-01-20T19:59:00.607Z,97.90
2019-01-20T20:01:02.694Z,98.20
2019-01-20T20:03:04.723Z,98.30
2019-01-20T20:05:09.984Z,97.10
2019-01-20T20:07:11.766Z,98.10
2019-01-20T20:09:13.674Z,97.20
2019-01-20T20:11:15.901Z,98.30
2019-01-20T20:13:25.162Z,97.90
2019-01-20T20:15:27.256Z,97.50
2019-01-20T20:17:30.135Z,96.90
2019-01-20T20:19:32.013Z,97.80
2019-01-20T20:21:34.190Z,98.30
2019-01-20T20:23:36.107Z,97.70
2019-01-20T20:25:38.201Z,97.70
2019-01-20T20:27:40.264Z,96.00
2019-01-20T20:29:42.719Z,96.00
2019-01-20T20:31:48.005Z,94.40
2019-01-20T20:33:49.890Z,95.90
2019-01-20T20:35:52.154Z,95.60
2019-01-20T20:37:54.076Z,95.60
2019-01-20T20:39:55.974Z,94.10
2019-01-20T20:41:57.867Z,93.30
2019-01-20T20:44:02.580Z,95.80
2019-01-20T20:46:04.563Z,95.50
2019-01-20T20:48:06.424Z,96.40
2019-01-20T20:50:09.599Z,95.70
2019-01-20T20:52:11.501Z,95.50
2019-01-20T20:54:13.580Z,96.30
2019-01-20T20:56:15.451Z,95.10
2019-01-20T20:58:17.222Z,93.80
2019-01-20T21:00:24.985Z,95.30
2019-01-20T21:02:26.851Z,95.50
2019-01-20T21:04:28.824Z,96.90
2019-01-20T21:06:31.093Z,96.60
2019-01-20T21:08:32.916Z,96.20
2019-01-20T21:10:34.887Z,96.60
2019-01-20T21:12:37.254Z,98.30
2019-01-20T21:14:39.325Z,96.90
2019-01-20T21:16:41.218Z,97.70
2019-01-20T21:18:43.150Z,96.70
2019-01-20T21:20:45.165Z,95.90
2019-01-20T21:22:47.063Z,96.00
2019-01-20T21:24:49.062Z,95.80
2019-01-20T21:26:51.117Z,97.00
2019-01-20T21:28:53.050Z,96.70
2019-01-20T21:30:55.063Z,98.20
2019-01-20T21:32:57.256Z,98.30
2019-01-20T21:34:59.303Z,96.50
2019-01-20T21:37:01.499Z,96.60
2019-01-20T21:39:06.463Z,95.50
2019-01-20T21:41:08.457Z,96.30
2019-01-20T21:43:10.548Z,96.70
2019-01-20T21:45:12.788Z,96.90
2019-01-20T21:47:14.740Z,94.60
2019-01-20T21:49:16.638Z,94.90
2019-01-20T21:51:18.603Z,94.60
2019-01-20T21:53:20.497Z,96.30
2019-01-20T21:55:22.919Z,96.10
2019-01-20T21:57:24.806Z,93.70
2019-01-20T21:59:26.817Z,94.40
2019-01-20T22:01:28.657Z,93.00
2019-01-20T22:03:30.683Z,92.20
2019-01-20T22:05:33.144Z,92.90
2019-01-20T22:07:35.293Z,93.40
2019-01-20T22:09:37.491Z,93.70
2019-01-20T22:11:39.290Z,93.20
2019-01-20T22:13:41.502Z,93.10
2019-01-20T22:15:44.801Z,95.20
2019-01-20T22:17:47.247Z,92.60
2019-01-20T22:19:49.455Z,92.40
2019-01-20T22:21:52.449Z,91.70
2019-01-20T22:23:54.513Z,93.50
2019-01-20T22:25:56.967Z,94.40
2019-01-20T22:27:58.916Z,94.50
2019-01-20T22:30:00.761Z,93.90
2019-01-20T22:32:02.781Z,93.00
2019-01-20T22:34:04.663Z,93.40
2019-01-20T22:36:06.435Z,92.60
2019-01-20T22:38:08.345Z,92.70
2019-01-20T22:40:11.227Z,92.00
2019-01-20T22:42:13.404Z,91.40
2019-01-20T22:44:15.847Z,91.50
2019-01-20T22:46:17.683Z,92.20
2019-01-20T22:48:19.743Z,95.40
2019-01-20T22:50:21.967Z,93.30
2019-01-20T22:52:23.763Z,93.90
2019-01-20T22:54:25.495Z,96.30
2019-01-20T22:56:27.220Z,97.80
2019-01-20T22:58:28.923Z,97.90
2019-01-20T23:00:46.303Z,97.10
2019-01-20T23:02:48.254Z,96.00
2019-01-20T23:04:49.970Z,95.50
2019-01-20T23:06:51.700Z,96.90
2019-01-20T23:08:53.423Z,96.40
2019-01-20T23:10:55.118Z,98.10
2019-01-20T23:12:56.822Z,97.80
2019-01-20T23:14:58.561Z,98.30
2019-01-20T23:17:07.506Z,98.30
2019-01-20T23:19:04.058Z,98.30
2019-01-20T23:21:05.862Z,98.30
2019-01-20T23:23:07.574Z,97.00
2019-01-20T23:25:09.382Z,96.60
2019-01-20T23:27:11.101Z,95.50
2019-01-20T23:29:13.068Z,95.00
2019-01-20T23:31:14.772Z,96.80
2019-01-20T23:33:16.514Z,96.80
2019-01-20T23:35:18.474Z,98.30
2019-01-20T23:37:20.423Z,98.30
2019-01-20T23:39:22.135Z,98.30
2019-01-20T23:41:23.878Z,97.30
2019-01-20T23:43:25.570Z,96.80
2019-01-20T23:45:27.374Z,96.80
2019-01-20T23:47:29.091Z,97.50
2019-01-20T23:49:30.814Z,95.70
2019-01-20T23:51:32.542Z,95.50
2019-01-20T23:53:34.395Z,95.50
2019-01-20T23:55:36.258Z,94.40
2019-01-20T23:57:38.058Z,94.40
2019-01-20T23:59:39.775Z,94.60
